sensor_id;sensor_type;location;lat;lon;timestamp;P1;durP1;ratioP1;P2;durP2;ratioP2
32852;SDS011;20515;51.704;5.700;2022-08-01T00:02:10;44.67;;;21.50;;
32852;SDS011;20515;51.704;5.700;2022-08-01T00:04:35;47.50;;;21.40;;
32852;SDS011;20515;51.704;5.700;2022-08-01T00:07:01;42.87;;;21.73;;
32852;SDS011;20515;51.704;5.700;2022-08-01T00:09:26;44.73;;;22.03;;
32852;SDS011;20515;51.704;5.700;2022-08-01T00:11:51;40.53;;;21.17;;
32852;SDS011;20515;51.704;5.700;2022-08-01T00:14:17;47.67;;;22.17;;
32852;SDS011;20515;51.704;5.700;2022-08-01T00:16:42;48.70;;;22.53;;
32852;SDS011;20515;51.704;5.700;2022-08-01T00:19:07;42.23;;;21.27;;
32852;SDS011;20515;51.704;5.700;2022-08-01T00:21:32;43.03;;;21.70;;
32852;SDS011;20515;51.704;5.700;2022-08-01T00:23:58;44.63;;;21.23;;
32852;SDS011;20515;51.704;5.700;2022-08-01T00:26:24;44.87;;;21.00;;
32852;SDS011;20515;51.704;5.700;2022-08-01T00:28:49;45.97;;;21.73;;
32852;SDS011;20515;51.704;5.700;2022-08-01T00:31:14;45.77;;;21.67;;
32852;SDS011;20515;51.704;5.700;2022-08-01T00:33:39;39.47;;;19.90;;
32852;SDS011;20515;51.704;5.700;2022-08-01T00:36:05;40.47;;;19.13;;
32852;SDS011;20515;51.704;5.700;2022-08-01T00:38:30;34.93;;;17.10;;
32852;SDS011;20515;51.704;5.700;2022-08-01T00:40:56;34.13;;;16.70;;
32852;SDS011;20515;51.704;5.700;2022-08-01T00:43:21;30.27;;;14.93;;
32852;SDS011;20515;51.704;5.700;2022-08-01T00:45:46;31.70;;;15.43;;
32852;SDS011;20515;51.704;5.700;2022-08-01T00:48:12;31.87;;;14.53;;
32852;SDS011;20515;51.704;5.700;2022-08-01T00:50:37;30.97;;;14.87;;
32852;SDS011;20515;51.704;5.700;2022-08-01T00:53:03;32.47;;;14.80;;
32852;SDS011;20515;51.704;5.700;2022-08-01T00:55:29;28.20;;;13.57;;
32852;SDS011;20515;51.704;5.700;2022-08-01T00:57:56;25.70;;;13.23;;
32852;SDS011;20515;51.704;5.700;2022-08-01T01:00:22;30.13;;;13.23;;
32852;SDS011;20515;51.704;5.700;2022-08-01T01:02:49;25.37;;;12.67;;
32852;SDS011;20515;51.704;5.700;2022-08-01T01:05:14;27.97;;;13.07;;
32852;SDS011;20515;51.704;5.700;2022-08-01T01:10:32;28.07;;;12.63;;
32852;SDS011;20515;51.704;5.700;2022-08-01T01:13:31;25.47;;;11.97;;
32852;SDS011;20515;51.704;5.700;2022-08-01T01:16:05;27.70;;;12.87;;
32852;SDS011;20515;51.704;5.700;2022-08-01T01:19:09;28.83;;;12.97;;
32852;SDS011;20515;51.704;5.700;2022-08-01T01:27:29;28.33;;;12.87;;
32852;SDS011;20515;51.704;5.700;2022-08-01T01:29:52;28.37;;;12.30;;
32852;SDS011;20515;51.704;5.700;2022-08-01T01:32:31;25.33;;;11.97;;
32852;SDS011;20515;51.704;5.700;2022-08-01T01:35:02;26.80;;;12.67;;
32852;SDS011;20515;51.704;5.700;2022-08-01T01:37:32;32.27;;;12.73;;
32852;SDS011;20515;51.704;5.700;2022-08-01T01:40:00;26.23;;;12.40;;
32852;SDS011;20515;51.704;5.700;2022-08-01T01:42:27;27.97;;;13.30;;
32852;SDS011;20515;51.704;5.700;2022-08-01T01:44:54;27.73;;;12.97;;
32852;SDS011;20515;51.704;5.700;2022-08-01T01:47:20;27.47;;;12.93;;
32852;SDS011;20515;51.704;5.700;2022-08-01T01:49:47;27.27;;;12.57;;
32852;SDS011;20515;51.704;5.700;2022-08-01T01:52:15;28.97;;;13.70;;
32852;SDS011;20515;51.704;5.700;2022-08-01T01:54:45;25.63;;;12.57;;
32852;SDS011;20515;51.704;5.700;2022-08-01T01:57:12;26.50;;;12.60;;
32852;SDS011;20515;51.704;5.700;2022-08-01T01:59:39;27.33;;;12.57;;
32852;SDS011;20515;51.704;5.700;2022-08-01T02:02:07;25.20;;;12.00;;
32852;SDS011;20515;51.704;5.700;2022-08-01T02:04:35;26.17;;;11.73;;
32852;SDS011;20515;51.704;5.700;2022-08-01T02:07:02;25.80;;;12.53;;
32852;SDS011;20515;51.704;5.700;2022-08-01T02:09:29;31.10;;;12.60;;
32852;SDS011;20515;51.704;5.700;2022-08-01T02:11:56;28.00;;;12.07;;
32852;SDS011;20515;51.704;5.700;2022-08-01T02:14:24;24.83;;;11.67;;
32852;SDS011;20515;51.704;5.700;2022-08-01T02:16:52;27.67;;;12.07;;
32852;SDS011;20515;51.704;5.700;2022-08-01T02:19:21;25.67;;;11.27;;
32852;SDS011;20515;51.704;5.700;2022-08-01T02:21:57;28.27;;;12.00;;
32852;SDS011;20515;51.704;5.700;2022-08-01T02:27:58;26.00;;;11.23;;
32852;SDS011;20515;51.704;5.700;2022-08-01T02:30:36;27.03;;;12.47;;
32852;SDS011;20515;51.704;5.700;2022-08-01T02:33:08;23.00;;;10.70;;
32852;SDS011;20515;51.704;5.700;2022-08-01T02:35:36;24.20;;;11.63;;
32852;SDS011;20515;51.704;5.700;2022-08-01T02:38:03;27.20;;;12.30;;
32852;SDS011;20515;51.704;5.700;2022-08-01T02:40:31;27.37;;;11.67;;
32852;SDS011;20515;51.704;5.700;2022-08-01T02:42:59;26.17;;;12.40;;
32852;SDS011;20515;51.704;5.700;2022-08-01T02:45:27;27.33;;;11.80;;
32852;SDS011;20515;51.704;5.700;2022-08-01T02:47:55;33.37;;;12.80;;
32852;SDS011;20515;51.704;5.700;2022-08-01T02:50:24;26.63;;;12.10;;
32852;SDS011;20515;51.704;5.700;2022-08-01T02:52:53;27.93;;;12.93;;
32852;SDS011;20515;51.704;5.700;2022-08-01T02:55:20;35.70;;;13.07;;
32852;SDS011;20515;51.704;5.700;2022-08-01T02:57:46;27.57;;;12.20;;
32852;SDS011;20515;51.704;5.700;2022-08-01T03:00:13;26.23;;;12.83;;
32852;SDS011;20515;51.704;5.700;2022-08-01T03:02:40;26.13;;;12.47;;
32852;SDS011;20515;51.704;5.700;2022-08-01T03:05:08;28.30;;;12.47;;
32852;SDS011;20515;51.704;5.700;2022-08-01T03:07:36;28.73;;;12.63;;
32852;SDS011;20515;51.704;5.700;2022-08-01T03:10:04;28.60;;;12.57;;
32852;SDS011;20515;51.704;5.700;2022-08-01T03:12:30;27.70;;;12.70;;
32852;SDS011;20515;51.704;5.700;2022-08-01T03:14:59;27.47;;;13.13;;
32852;SDS011;20515;51.704;5.700;2022-08-01T03:17:27;27.93;;;12.77;;
32852;SDS011;20515;51.704;5.700;2022-08-01T03:19:54;27.00;;;12.53;;
32852;SDS011;20515;51.704;5.700;2022-08-01T03:22:23;29.90;;;13.37;;
32852;SDS011;20515;51.704;5.700;2022-08-01T03:24:51;30.80;;;13.23;;
32852;SDS011;20515;51.704;5.700;2022-08-01T03:27:22;30.93;;;13.97;;
32852;SDS011;20515;51.704;5.700;2022-08-01T03:29:49;31.70;;;13.93;;
32852;SDS011;20515;51.704;5.700;2022-08-01T03:32:17;32.97;;;14.77;;
32852;SDS011;20515;51.704;5.700;2022-08-01T03:34:44;30.37;;;14.57;;
32852;SDS011;20515;51.704;5.700;2022-08-01T03:37:14;33.43;;;14.47;;
32852;SDS011;20515;51.704;5.700;2022-08-01T03:39:48;36.60;;;14.97;;
32852;SDS011;20515;51.704;5.700;2022-08-01T03:42:21;34.90;;;14.43;;
32852;SDS011;20515;51.704;5.700;2022-08-01T03:44:54;35.30;;;14.23;;
32852;SDS011;20515;51.704;5.700;2022-08-01T03:47:24;32.20;;;14.57;;
32852;SDS011;20515;51.704;5.700;2022-08-01T03:49:54;34.23;;;14.87;;
32852;SDS011;20515;51.704;5.700;2022-08-01T03:52:21;36.83;;;15.50;;
32852;SDS011;20515;51.704;5.700;2022-08-01T03:54:48;33.77;;;15.83;;
32852;SDS011;20515;51.704;5.700;2022-08-01T03:57:17;33.50;;;15.90;;
32852;SDS011;20515;51.704;5.700;2022-08-01T03:59:43;33.03;;;15.97;;
32852;SDS011;20515;51.704;5.700;2022-08-01T04:02:10;36.67;;;16.07;;
32852;SDS011;20515;51.704;5.700;2022-08-01T04:04:38;36.77;;;16.17;;
32852;SDS011;20515;51.704;5.700;2022-08-01T04:07:04;37.30;;;15.50;;
32852;SDS011;20515;51.704;5.700;2022-08-01T04:09:31;36.40;;;16.13;;
32852;SDS011;20515;51.704;5.700;2022-08-01T04:12:00;35.53;;;16.23;;
32852;SDS011;20515;51.704;5.700;2022-08-01T04:14:26;35.23;;;15.67;;
32852;SDS011;20515;51.704;5.700;2022-08-01T04:16:53;39.53;;;16.07;;
32852;SDS011;20515;51.704;5.700;2022-08-01T04:19:18;39.43;;;16.33;;
32852;SDS011;20515;51.704;5.700;2022-08-01T04:21:44;40.10;;;17.33;;
32852;SDS011;20515;51.704;5.700;2022-08-01T04:24:12;34.33;;;16.63;;
32852;SDS011;20515;51.704;5.700;2022-08-01T04:26:40;38.03;;;17.10;;
32852;SDS011;20515;51.704;5.700;2022-08-01T04:29:08;36.10;;;16.20;;
32852;SDS011;20515;51.704;5.700;2022-08-01T04:31:35;42.80;;;17.80;;
32852;SDS011;20515;51.704;5.700;2022-08-01T04:34:04;36.57;;;15.90;;
32852;SDS011;20515;51.704;5.700;2022-08-01T04:36:31;35.83;;;16.33;;
32852;SDS011;20515;51.704;5.700;2022-08-01T04:39:00;36.23;;;15.67;;
32852;SDS011;20515;51.704;5.700;2022-08-01T04:41:27;36.27;;;16.53;;
32852;SDS011;20515;51.704;5.700;2022-08-01T04:43:54;36.43;;;15.83;;
32852;SDS011;20515;51.704;5.700;2022-08-01T04:46:20;39.67;;;15.50;;
32852;SDS011;20515;51.704;5.700;2022-08-01T04:48:47;36.43;;;14.80;;
32852;SDS011;20515;51.704;5.700;2022-08-01T04:51:13;34.10;;;15.47;;
32852;SDS011;20515;51.704;5.700;2022-08-01T04:53:43;32.20;;;15.60;;
32852;SDS011;20515;51.704;5.700;2022-08-01T04:56:08;35.90;;;15.23;;
32852;SDS011;20515;51.704;5.700;2022-08-01T04:58:34;34.47;;;15.17;;
32852;SDS011;20515;51.704;5.700;2022-08-01T05:00:59;33.43;;;15.27;;
32852;SDS011;20515;51.704;5.700;2022-08-01T05:03:25;38.73;;;15.40;;
32852;SDS011;20515;51.704;5.700;2022-08-01T05:05:50;33.67;;;15.53;;
32852;SDS011;20515;51.704;5.700;2022-08-01T05:08:15;33.50;;;15.23;;
32852;SDS011;20515;51.704;5.700;2022-08-01T05:10:41;35.07;;;15.63;;
32852;SDS011;20515;51.704;5.700;2022-08-01T05:13:07;31.60;;;14.77;;
32852;SDS011;20515;51.704;5.700;2022-08-01T05:15:32;33.10;;;15.13;;
32852;SDS011;20515;51.704;5.700;2022-08-01T05:17:59;31.80;;;14.40;;
32852;SDS011;20515;51.704;5.700;2022-08-01T05:20:24;31.20;;;14.17;;
32852;SDS011;20515;51.704;5.700;2022-08-01T05:22:49;34.57;;;14.10;;
32852;SDS011;20515;51.704;5.700;2022-08-01T05:25:14;31.33;;;14.17;;
32852;SDS011;20515;51.704;5.700;2022-08-01T05:27:40;28.77;;;13.43;;
32852;SDS011;20515;51.704;5.700;2022-08-01T05:30:08;32.23;;;14.40;;
32852;SDS011;20515;51.704;5.700;2022-08-01T05:32:35;32.90;;;14.87;;
32852;SDS011;20515;51.704;5.700;2022-08-01T05:35:00;29.63;;;13.40;;
32852;SDS011;20515;51.704;5.700;2022-08-01T05:37:26;28.10;;;13.30;;
32852;SDS011;20515;51.704;5.700;2022-08-01T05:39:51;31.30;;;14.07;;
32852;SDS011;20515;51.704;5.700;2022-08-01T05:42:16;39.47;;;15.13;;
32852;SDS011;20515;51.704;5.700;2022-08-01T05:44:42;30.03;;;13.57;;
32852;SDS011;20515;51.704;5.700;2022-08-01T05:47:07;28.80;;;14.07;;
32852;SDS011;20515;51.704;5.700;2022-08-01T05:49:32;28.83;;;13.43;;
32852;SDS011;20515;51.704;5.700;2022-08-01T05:51:58;26.77;;;12.67;;
32852;SDS011;20515;51.704;5.700;2022-08-01T05:54:23;24.63;;;11.93;;
32852;SDS011;20515;51.704;5.700;2022-08-01T05:56:48;25.23;;;11.90;;
32852;SDS011;20515;51.704;5.700;2022-08-01T05:59:14;26.87;;;12.63;;
32852;SDS011;20515;51.704;5.700;2022-08-01T06:01:39;24.10;;;12.50;;
32852;SDS011;20515;51.704;5.700;2022-08-01T06:04:04;25.27;;;12.30;;
32852;SDS011;20515;51.704;5.700;2022-08-01T06:06:30;26.20;;;12.80;;
32852;SDS011;20515;51.704;5.700;2022-08-01T06:08:55;24.13;;;12.03;;
32852;SDS011;20515;51.704;5.700;2022-08-01T06:11:20;28.40;;;12.57;;
32852;SDS011;20515;51.704;5.700;2022-08-01T06:13:46;25.67;;;12.57;;
32852;SDS011;20515;51.704;5.700;2022-08-01T06:16:11;24.60;;;11.43;;
32852;SDS011;20515;51.704;5.700;2022-08-01T06:18:37;24.87;;;12.63;;
32852;SDS011;20515;51.704;5.700;2022-08-01T06:21:02;23.70;;;12.50;;
32852;SDS011;20515;51.704;5.700;2022-08-01T06:23:27;23.30;;;12.63;;
32852;SDS011;20515;51.704;5.700;2022-08-01T06:25:53;23.10;;;12.07;;
32852;SDS011;20515;51.704;5.700;2022-08-01T06:28:19;24.37;;;11.47;;
32852;SDS011;20515;51.704;5.700;2022-08-01T06:30:45;26.57;;;10.97;;
32852;SDS011;20515;51.704;5.700;2022-08-01T06:33:10;20.27;;;10.33;;
32852;SDS011;20515;51.704;5.700;2022-08-01T06:35:35;19.17;;;9.63;;
32852;SDS011;20515;51.704;5.700;2022-08-01T06:38:01;19.63;;;8.63;;
32852;SDS011;20515;51.704;5.700;2022-08-01T06:40:27;19.00;;;7.90;;
32852;SDS011;20515;51.704;5.700;2022-08-01T06:42:52;17.90;;;8.60;;
32852;SDS011;20515;51.704;5.700;2022-08-01T06:45:18;19.27;;;8.20;;
32852;SDS011;20515;51.704;5.700;2022-08-01T06:47:44;16.77;;;7.83;;
32852;SDS011;20515;51.704;5.700;2022-08-01T06:50:10;17.03;;;8.07;;
32852;SDS011;20515;51.704;5.700;2022-08-01T06:52:36;16.23;;;7.70;;
32852;SDS011;20515;51.704;5.700;2022-08-01T06:55:02;17.57;;;7.27;;
32852;SDS011;20515;51.704;5.700;2022-08-01T06:57:28;15.93;;;7.63;;
32852;SDS011;20515;51.704;5.700;2022-08-01T06:59:53;16.23;;;7.60;;
32852;SDS011;20515;51.704;5.700;2022-08-01T07:02:19;15.50;;;7.27;;
32852;SDS011;20515;51.704;5.700;2022-08-01T07:04:44;17.47;;;8.20;;
32852;SDS011;20515;51.704;5.700;2022-08-01T07:07:10;20.10;;;7.93;;
32852;SDS011;20515;51.704;5.700;2022-08-01T07:09:35;17.17;;;7.83;;
32852;SDS011;20515;51.704;5.700;2022-08-01T07:12:01;17.57;;;8.20;;
32852;SDS011;20515;51.704;5.700;2022-08-01T07:14:27;16.83;;;7.93;;
32852;SDS011;20515;51.704;5.700;2022-08-01T07:16:52;15.53;;;7.40;;
32852;SDS011;20515;51.704;5.700;2022-08-01T07:19:18;16.87;;;8.17;;
32852;SDS011;20515;51.704;5.700;2022-08-01T07:21:43;15.10;;;7.37;;
32852;SDS011;20515;51.704;5.700;2022-08-01T07:24:09;15.97;;;8.20;;
32852;SDS011;20515;51.704;5.700;2022-08-01T07:26:35;16.40;;;7.70;;
32852;SDS011;20515;51.704;5.700;2022-08-01T07:29:01;16.57;;;7.13;;
32852;SDS011;20515;51.704;5.700;2022-08-01T07:31:27;15.43;;;6.97;;
32852;SDS011;20515;51.704;5.700;2022-08-01T07:33:52;15.80;;;6.50;;
32852;SDS011;20515;51.704;5.700;2022-08-01T07:36:18;14.70;;;6.90;;
32852;SDS011;20515;51.704;5.700;2022-08-01T07:38:44;15.00;;;6.63;;
32852;SDS011;20515;51.704;5.700;2022-08-01T07:41:10;15.20;;;6.37;;
32852;SDS011;20515;51.704;5.700;2022-08-01T07:43:35;15.40;;;5.80;;
32852;SDS011;20515;51.704;5.700;2022-08-01T07:46:01;12.90;;;5.23;;
32852;SDS011;20515;51.704;5.700;2022-08-01T07:48:29;11.93;;;4.90;;
32852;SDS011;20515;51.704;5.700;2022-08-01T07:50:55;15.17;;;5.27;;
32852;SDS011;20515;51.704;5.700;2022-08-01T07:53:21;12.77;;;5.20;;
32852;SDS011;20515;51.704;5.700;2022-08-01T07:55:46;8.80;;;2.70;;
32852;SDS011;20515;51.704;5.700;2022-08-01T07:58:11;8.70;;;2.30;;
32852;SDS011;20515;51.704;5.700;2022-08-01T08:00:37;7.13;;;2.20;;
32852;SDS011;20515;51.704;5.700;2022-08-01T08:03:02;9.03;;;2.47;;
32852;SDS011;20515;51.704;5.700;2022-08-01T08:05:28;10.30;;;2.33;;
32852;SDS011;20515;51.704;5.700;2022-08-01T08:07:53;7.07;;;2.23;;
32852;SDS011;20515;51.704;5.700;2022-08-01T08:10:19;9.80;;;2.60;;
32852;SDS011;20515;51.704;5.700;2022-08-01T08:12:44;13.90;;;3.90;;
32852;SDS011;20515;51.704;5.700;2022-08-01T08:15:11;11.53;;;4.23;;
32852;SDS011;20515;51.704;5.700;2022-08-01T08:17:37;12.80;;;3.97;;
32852;SDS011;20515;51.704;5.700;2022-08-01T08:20:06;12.30;;;3.80;;
32852;SDS011;20515;51.704;5.700;2022-08-01T08:22:33;11.77;;;3.30;;
32852;SDS011;20515;51.704;5.700;2022-08-01T08:24:59;13.90;;;3.43;;
32852;SDS011;20515;51.704;5.700;2022-08-01T08:27:24;11.53;;;3.47;;
32852;SDS011;20515;51.704;5.700;2022-08-01T08:29:50;12.33;;;3.43;;
32852;SDS011;20515;51.704;5.700;2022-08-01T08:32:15;8.30;;;2.30;;
32852;SDS011;20515;51.704;5.700;2022-08-01T08:34:40;9.10;;;2.50;;
32852;SDS011;20515;51.704;5.700;2022-08-01T08:37:06;8.87;;;2.37;;
32852;SDS011;20515;51.704;5.700;2022-08-01T08:39:32;6.73;;;2.10;;
32852;SDS011;20515;51.704;5.700;2022-08-01T08:42:00;8.60;;;2.10;;
32852;SDS011;20515;51.704;5.700;2022-08-01T08:44:27;7.70;;;2.27;;
32852;SDS011;20515;51.704;5.700;2022-08-01T08:46:52;6.23;;;1.87;;
32852;SDS011;20515;51.704;5.700;2022-08-01T08:49:19;7.83;;;2.20;;
32852;SDS011;20515;51.704;5.700;2022-08-01T08:51:50;5.60;;;1.97;;
32852;SDS011;20515;51.704;5.700;2022-08-01T08:54:18;6.10;;;1.80;;
32852;SDS011;20515;51.704;5.700;2022-08-01T08:56:47;5.60;;;1.80;;
32852;SDS011;20515;51.704;5.700;2022-08-01T08:59:13;9.97;;;2.23;;
32852;SDS011;20515;51.704;5.700;2022-08-01T09:01:40;5.67;;;1.70;;
32852;SDS011;20515;51.704;5.700;2022-08-01T09:04:05;6.13;;;1.77;;
32852;SDS011;20515;51.704;5.700;2022-08-01T09:06:32;6.10;;;1.83;;
32852;SDS011;20515;51.704;5.700;2022-08-01T09:08:58;7.67;;;2.10;;
32852;SDS011;20515;51.704;5.700;2022-08-01T09:11:24;6.67;;;1.90;;
32852;SDS011;20515;51.704;5.700;2022-08-01T09:16:28;6.00;;;1.60;;
32852;SDS011;20515;51.704;5.700;2022-08-01T09:18:53;5.85;;;1.63;;
32852;SDS011;20515;51.704;5.700;2022-08-01T09:21:19;4.07;;;1.50;;
32852;SDS011;20515;51.704;5.700;2022-08-01T09:23:49;5.17;;;1.67;;
32852;SDS011;20515;51.704;5.700;2022-08-01T09:26:17;6.00;;;1.70;;
32852;SDS011;20515;51.704;5.700;2022-08-01T09:28:44;3.97;;;1.52;;
32852;SDS011;20515;51.704;5.700;2022-08-01T09:31:12;4.28;;;1.42;;
32852;SDS011;20515;51.704;5.700;2022-08-01T09:36:17;3.85;;;1.40;;
32852;SDS011;20515;51.704;5.700;2022-08-01T09:38:43;11.38;;;2.20;;
32852;SDS011;20515;51.704;5.700;2022-08-01T09:41:08;4.78;;;1.50;;
32852;SDS011;20515;51.704;5.700;2022-08-01T09:43:36;5.50;;;1.30;;
32852;SDS011;20515;51.704;5.700;2022-08-01T09:46:08;13.73;;;2.17;;
32852;SDS011;20515;51.704;5.700;2022-08-01T09:48:36;4.53;;;1.50;;
32852;SDS011;20515;51.704;5.700;2022-08-01T09:51:04;4.72;;;1.52;;
32852;SDS011;20515;51.704;5.700;2022-08-01T09:53:40;4.95;;;1.70;;
32852;SDS011;20515;51.704;5.700;2022-08-01T09:56:10;6.68;;;1.60;;
32852;SDS011;20515;51.704;5.700;2022-08-01T09:58:55;4.40;;;1.50;;
32852;SDS011;20515;51.704;5.700;2022-08-01T10:01:22;7.10;;;1.70;;
32852;SDS011;20515;51.704;5.700;2022-08-01T10:06:50;6.57;;;2.03;;
32852;SDS011;20515;51.704;5.700;2022-08-01T10:09:32;6.68;;;1.90;;
32852;SDS011;20515;51.704;5.700;2022-08-01T10:11:59;4.88;;;1.65;;
32852;SDS011;20515;51.704;5.700;2022-08-01T10:14:26;5.90;;;1.80;;
32852;SDS011;20515;51.704;5.700;2022-08-01T10:16:53;7.10;;;2.00;;
32852;SDS011;20515;51.704;5.700;2022-08-01T10:19:21;10.40;;;2.30;;
32852;SDS011;20515;51.704;5.700;2022-08-01T10:21:48;9.43;;;2.15;;
32852;SDS011;20515;51.704;5.700;2022-08-01T10:24:17;7.68;;;1.90;;
32852;SDS011;20515;51.704;5.700;2022-08-01T10:26:45;10.25;;;2.10;;
32852;SDS011;20515;51.704;5.700;2022-08-01T10:29:15;7.30;;;2.17;;
32852;SDS011;20515;51.704;5.700;2022-08-01T10:31:43;6.03;;;1.95;;
32852;SDS011;20515;51.704;5.700;2022-08-01T10:34:09;4.57;;;1.50;;
32852;SDS011;20515;51.704;5.700;2022-08-01T10:36:36;7.68;;;2.35;;
32852;SDS011;20515;51.704;5.700;2022-08-01T10:39:04;5.60;;;1.90;;
32852;SDS011;20515;51.704;5.700;2022-08-01T10:41:30;7.95;;;2.10;;
32852;SDS011;20515;51.704;5.700;2022-08-01T10:43:58;7.40;;;1.90;;
32852;SDS011;20515;51.704;5.700;2022-08-01T10:46:26;8.47;;;2.10;;
32852;SDS011;20515;51.704;5.700;2022-08-01T10:48:56;4.63;;;1.60;;
32852;SDS011;20515;51.704;5.700;2022-08-01T10:51:27;6.53;;;1.60;;
32852;SDS011;20515;51.704;5.700;2022-08-01T10:53:53;4.88;;;1.60;;
32852;SDS011;20515;51.704;5.700;2022-08-01T10:56:19;6.80;;;1.70;;
32852;SDS011;20515;51.704;5.700;2022-08-01T10:58:47;6.30;;;1.88;;
32852;SDS011;20515;51.704;5.700;2022-08-01T11:01:23;8.33;;;2.00;;
32852;SDS011;20515;51.704;5.700;2022-08-01T11:04:02;6.07;;;1.50;;
32852;SDS011;20515;51.704;5.700;2022-08-01T11:08:57;5.60;;;1.70;;
32852;SDS011;20515;51.704;5.700;2022-08-01T11:11:23;5.45;;;1.63;;
32852;SDS011;20515;51.704;5.700;2022-08-01T11:16:29;4.90;;;1.60;;
32852;SDS011;20515;51.704;5.700;2022-08-01T11:19:06;4.13;;;1.40;;
32852;SDS011;20515;51.704;5.700;2022-08-01T11:24:33;7.18;;;1.60;;
32852;SDS011;20515;51.704;5.700;2022-08-01T11:32:49;9.50;;;2.13;;
32852;SDS011;20515;51.704;5.700;2022-08-01T11:35:16;6.75;;;1.80;;
32852;SDS011;20515;51.704;5.700;2022-08-01T11:37:43;7.35;;;1.88;;
32852;SDS011;20515;51.704;5.700;2022-08-01T11:40:15;5.25;;;1.58;;
32852;SDS011;20515;51.704;5.700;2022-08-01T11:42:45;6.18;;;1.50;;
32852;SDS011;20515;51.704;5.700;2022-08-01T11:45:11;7.40;;;1.70;;
32852;SDS011;20515;51.704;5.700;2022-08-01T11:47:49;6.20;;;1.80;;
32852;SDS011;20515;51.704;5.700;2022-08-01T11:50:34;4.93;;;1.38;;
32852;SDS011;20515;51.704;5.700;2022-08-01T11:53:03;5.95;;;1.73;;
32852;SDS011;20515;51.704;5.700;2022-08-01T11:55:30;7.28;;;1.85;;
32852;SDS011;20515;51.704;5.700;2022-08-01T11:58:00;7.00;;;1.80;;
32852;SDS011;20515;51.704;5.700;2022-08-01T12:00:30;7.37;;;1.70;;
32852;SDS011;20515;51.704;5.700;2022-08-01T12:03:05;5.43;;;1.80;;
32852;SDS011;20515;51.704;5.700;2022-08-01T12:05:33;6.53;;;1.80;;
32852;SDS011;20515;51.704;5.700;2022-08-01T12:08:01;8.57;;;1.88;;
32852;SDS011;20515;51.704;5.700;2022-08-01T12:10:29;9.52;;;2.42;;
32852;SDS011;20515;51.704;5.700;2022-08-01T12:13:01;7.18;;;2.10;;
32852;SDS011;20515;51.704;5.700;2022-08-01T12:15:29;7.30;;;1.92;;
32852;SDS011;20515;51.704;5.700;2022-08-01T12:17:57;16.45;;;6.55;;
32852;SDS011;20515;51.704;5.700;2022-08-01T12:20:24;13.32;;;3.92;;
32852;SDS011;20515;51.704;5.700;2022-08-01T12:22:54;9.07;;;2.40;;
32852;SDS011;20515;51.704;5.700;2022-08-01T12:25:21;9.75;;;2.50;;
32852;SDS011;20515;51.704;5.700;2022-08-01T12:27:47;9.43;;;2.45;;
32852;SDS011;20515;51.704;5.700;2022-08-01T12:30:14;6.97;;;2.08;;
32852;SDS011;20515;51.704;5.700;2022-08-01T12:32:43;10.30;;;2.38;;
32852;SDS011;20515;51.704;5.700;2022-08-01T12:35:15;12.07;;;2.55;;
32852;SDS011;20515;51.704;5.700;2022-08-01T12:37:43;10.32;;;2.40;;
32852;SDS011;20515;51.704;5.700;2022-08-01T12:40:16;8.90;;;2.33;;
32852;SDS011;20515;51.704;5.700;2022-08-01T12:42:44;11.75;;;2.60;;
32852;SDS011;20515;51.704;5.700;2022-08-01T12:45:12;11.38;;;2.65;;
32852;SDS011;20515;51.704;5.700;2022-08-01T12:47:40;14.02;;;2.92;;
32852;SDS011;20515;51.704;5.700;2022-08-01T12:50:07;10.63;;;2.70;;
32852;SDS011;20515;51.704;5.700;2022-08-01T12:52:36;11.27;;;2.85;;
32852;SDS011;20515;51.704;5.700;2022-08-01T12:55:10;12.27;;;2.95;;
32852;SDS011;20515;51.704;5.700;2022-08-01T12:57:36;10.48;;;2.92;;
32852;SDS011;20515;51.704;5.700;2022-08-01T13:02:36;12.77;;;3.47;;
32852;SDS011;20515;51.704;5.700;2022-08-01T13:05:04;10.98;;;2.80;;
32852;SDS011;20515;51.704;5.700;2022-08-01T13:07:40;13.05;;;3.20;;
32852;SDS011;20515;51.704;5.700;2022-08-01T13:10:15;12.07;;;3.47;;
32852;SDS011;20515;51.704;5.700;2022-08-01T13:12:51;13.88;;;2.58;;
32852;SDS011;20515;51.704;5.700;2022-08-01T13:15:18;9.98;;;2.72;;
32852;SDS011;20515;51.704;5.700;2022-08-01T13:17:49;9.43;;;2.40;;
32852;SDS011;20515;51.704;5.700;2022-08-01T13:20:23;13.68;;;3.10;;
32852;SDS011;20515;51.704;5.700;2022-08-01T13:22:50;11.90;;;2.72;;
32852;SDS011;20515;51.704;5.700;2022-08-01T13:25:16;11.20;;;3.00;;
32852;SDS011;20515;51.704;5.700;2022-08-01T13:27:42;11.85;;;2.90;;
32852;SDS011;20515;51.704;5.700;2022-08-01T13:30:14;10.88;;;3.03;;
32852;SDS011;20515;51.704;5.700;2022-08-01T13:32:41;12.88;;;3.50;;
32852;SDS011;20515;51.704;5.700;2022-08-01T13:35:10;13.73;;;3.50;;
32852;SDS011;20515;51.704;5.700;2022-08-01T13:37:41;13.25;;;3.70;;
32852;SDS011;20515;51.704;5.700;2022-08-01T13:40:08;14.10;;;3.65;;
32852;SDS011;20515;51.704;5.700;2022-08-01T13:42:35;13.25;;;3.22;;
32852;SDS011;20515;51.704;5.700;2022-08-01T13:45:01;13.63;;;3.00;;
32852;SDS011;20515;51.704;5.700;2022-08-01T13:47:26;11.05;;;2.75;;
32852;SDS011;20515;51.704;5.700;2022-08-01T13:49:52;10.85;;;2.50;;
32852;SDS011;20515;51.704;5.700;2022-08-01T13:52:17;11.88;;;2.40;;
32852;SDS011;20515;51.704;5.700;2022-08-01T13:54:42;8.52;;;2.53;;
32852;SDS011;20515;51.704;5.700;2022-08-01T13:57:08;10.82;;;2.45;;
32852;SDS011;20515;51.704;5.700;2022-08-01T13:59:34;9.80;;;1.95;;
32852;SDS011;20515;51.704;5.700;2022-08-01T14:01:59;7.85;;;1.88;;
32852;SDS011;20515;51.704;5.700;2022-08-01T14:04:25;11.27;;;2.40;;
32852;SDS011;20515;51.704;5.700;2022-08-01T14:06:50;11.38;;;2.47;;
32852;SDS011;20515;51.704;5.700;2022-08-01T14:09:16;11.63;;;2.53;;
32852;SDS011;20515;51.704;5.700;2022-08-01T14:11:44;12.77;;;2.70;;
32852;SDS011;20515;51.704;5.700;2022-08-01T14:14:10;11.43;;;2.63;;
32852;SDS011;20515;51.704;5.700;2022-08-01T14:16:35;11.00;;;2.42;;
32852;SDS011;20515;51.704;5.700;2022-08-01T14:19:02;13.38;;;2.55;;
32852;SDS011;20515;51.704;5.700;2022-08-01T14:21:28;12.70;;;2.30;;
32852;SDS011;20515;51.704;5.700;2022-08-01T14:23:53;11.73;;;2.53;;
32852;SDS011;20515;51.704;5.700;2022-08-01T14:26:18;10.73;;;2.35;;
32852;SDS011;20515;51.704;5.700;2022-08-01T14:28:43;13.38;;;2.65;;
32852;SDS011;20515;51.704;5.700;2022-08-01T14:31:09;12.20;;;2.50;;
32852;SDS011;20515;51.704;5.700;2022-08-01T14:33:34;8.98;;;1.90;;
32852;SDS011;20515;51.704;5.700;2022-08-01T14:36:00;10.85;;;2.38;;
32852;SDS011;20515;51.704;5.700;2022-08-01T14:38:25;13.73;;;2.60;;
32852;SDS011;20515;51.704;5.700;2022-08-01T14:40:51;13.80;;;2.65;;
32852;SDS011;20515;51.704;5.700;2022-08-01T14:43:17;13.27;;;2.63;;
32852;SDS011;20515;51.704;5.700;2022-08-01T14:45:43;11.13;;;2.53;;
32852;SDS011;20515;51.704;5.700;2022-08-01T14:48:09;13.63;;;2.65;;
32852;SDS011;20515;51.704;5.700;2022-08-01T14:50:34;12.00;;;2.47;;
32852;SDS011;20515;51.704;5.700;2022-08-01T14:53:00;13.52;;;2.75;;
32852;SDS011;20515;51.704;5.700;2022-08-01T14:55:25;12.40;;;2.50;;
32852;SDS011;20515;51.704;5.700;2022-08-01T14:57:52;11.18;;;2.63;;
32852;SDS011;20515;51.704;5.700;2022-08-01T15:00:17;10.60;;;2.42;;
32852;SDS011;20515;51.704;5.700;2022-08-01T15:02:43;9.70;;;2.78;;
32852;SDS011;20515;51.704;5.700;2022-08-01T15:05:08;12.02;;;2.40;;
32852;SDS011;20515;51.704;5.700;2022-08-01T15:07:34;9.70;;;2.50;;
32852;SDS011;20515;51.704;5.700;2022-08-01T15:10:00;10.98;;;2.70;;
32852;SDS011;20515;51.704;5.700;2022-08-01T15:12:26;12.75;;;2.63;;